Time;durP1;ratioP1;P1;durP2;ratioP2;P2;SDS_P1;SDS_P2;PMS_P1;PMS_P2;Temp;Humidity;BMP_temperature;BMP_pressure;BME280_temperature;BME280_humidity;BME280_pressure;Samples;Min_cycle;Max_cycle;Signal;HPM_P1;HPM_P2
2021/03/18 00:04:11;;;;;;;6.27;2.20;;;;;;;;;;10363506;28;20237;-78
2021/03/18 00:09:14;;;;;;;8.23;2.73;;;;;;;;;;10354588;28;20244;-79
2021/03/18 00:14:18;;;;;;;7.87;2.10;;;;;;;;;;10366767;28;20697;-78
2021/03/18 00:19:20;;;;;;;7.70;2.30;;;;;;;;;;10354788;28;20216;-77
2021/03/18 00:24:22;;;;;;;8.70;2.37;;;;;;;;;;10359515;28;20208;-78
2021/03/18 00:29:25;;;;;;;10.90;2.43;;;;;;;;;;10362095;28;20252;-78
2021/03/18 00:34:29;;;;;;;10.17;2.60;;;;;;;;;;10358759;28;20355;-79
2021/03/18 00:39:31;;;;;;;6.80;2.63;;;;;;;;;;10360231;28;20231;-78
2021/03/18 00:44:34;;;;;;;8.00;2.50;;;;;;;;;;10355594;28;20681;-79
2021/03/18 00:49:36;;;;;;;13.33;2.67;;;;;;;;;;10357680;28;20699;-78
2021/03/18 00:54:38;;;;;;;9.83;2.37;;;;;;;;;;10358382;28;20209;-78
2021/03/18 00:59:41;;;;;;;8.17;2.67;;;;;;;;;;10360259;28;20221;-78
2021/03/18 01:04:48;;;;;;;8.80;2.43;;;;;;;;;;10354328;28;20275;-78
2021/03/18 01:09:50;;;;;;;7.37;2.43;;;;;;;;;;10350433;28;20251;-78
2021/03/18 01:14:53;;;;;;;5.43;2.20;;;;;;;;;;10358054;28;20216;-77
2021/03/18 01:19:55;;;;;;;12.67;2.70;;;;;;;;;;10354732;28;20220;-77
2021/03/18 01:24:57;;;;;;;12.27;2.70;;;;;;;;;;10352978;28;20208;-77
2021/03/18 01:30:00;;;;;;;11.77;3.10;;;;;;;;;;10363315;28;20267;-78
2021/03/18 01:35:10;;;;;;;7.27;2.80;;;;;;;;;;10352572;28;20682;-78
2021/03/18 01:40:13;;;;;;;6.50;2.30;;;;;;;;;;10357993;28;20239;-78
2021/03/18 01:45:16;;;;;;;13.67;3.10;;;;;;;;;;10354563;28;20677;-79
2021/03/18 01:50:20;;;;;;;12.53;2.90;;;;;;;;;;10359733;28;20266;-78
2021/03/18 01:55:24;;;;;;;9.83;3.13;;;;;;;;;;10358967;28;20224;-78
2021/03/18 02:00:27;;;;;;;12.83;3.00;;;;;;;;;;10365568;28;20227;-78
2021/03/18 02:05:30;;;;;;;11.00;2.90;;;;;;;;;;10362747;28;20231;-79
2021/03/18 02:10:32;;;;;;;14.63;3.27;;;;;;;;;;10363816;28;20267;-79
2021/03/18 02:15:36;;;;;;;12.03;3.03;;;;;;;;;;10361640;28;20286;-78
2021/03/18 02:21:01;;;;;;;13.87;3.17;;;;;;;;;;10362076;28;20686;-79
2021/03/18 02:26:09;;;;;;;13.83;3.20;;;;;;;;;;10368611;28;20217;-78
2021/03/18 02:31:14;;;;;;;9.20;3.20;;;;;;;;;;10358839;28;20724;-78
2021/03/18 02:36:19;;;;;;;14.20;3.40;;;;;;;;;;10361379;28;20323;-78
2021/03/18 02:41:22;;;;;;;12.40;3.43;;;;;;;;;;10366136;28;20235;-79
2021/03/18 02:46:25;;;;;;;10.80;3.23;;;;;;;;;;10361577;28;20692;-78
2021/03/18 02:51:30;;;;;;;13.37;3.73;;;;;;;;;;10360260;28;20316;-79
2021/03/18 02:56:32;;;;;;;11.67;3.37;;;;;;;;;;10366495;28;20347;-79
2021/03/18 03:01:35;;;;;;;12.97;3.73;;;;;;;;;;10359397;28;20231;-79
2021/03/18 03:06:38;;;;;;;11.00;3.53;;;;;;;;;;10361650;28;20586;-79
2021/03/18 03:11:41;;;;;;;18.33;3.60;;;;;;;;;;10356063;28;20298;-78
2021/03/18 03:16:43;;;;;;;12.40;3.60;;;;;;;;;;10363346;28;20708;-79
2021/03/18 03:21:46;;;;;;;12.13;3.47;;;;;;;;;;10365573;28;20270;-78
2021/03/18 03:26:48;;;;;;;12.50;3.70;;;;;;;;;;10367365;28;20235;-78
2021/03/18 03:31:50;;;;;;;12.47;3.63;;;;;;;;;;10356263;28;20245;-79
2021/03/18 03:36:53;;;;;;;11.80;3.63;;;;;;;;;;10359051;28;20219;-79
2021/03/18 03:41:54;;;;;;;10.23;3.80;;;;;;;;;;10356747;28;20212;-78
2021/03/18 03:46:56;;;;;;;15.23;4.20;;;;;;;;;;10357755;28;20212;-79
2021/03/18 03:52:04;;;;;;;13.33;3.87;;;;;;;;;;10356007;28;20935;-78
2021/03/18 03:57:08;;;;;;;11.03;3.80;;;;;;;;;;10360220;28;20440;-78
2021/03/18 04:02:11;;;;;;;13.23;3.90;;;;;;;;;;10358725;28;20246;-78
2021/03/18 04:07:15;;;;;;;16.30;3.70;;;;;;;;;;10357358;28;20223;-78
2021/03/18 04:12:19;;;;;;;12.10;3.90;;;;;;;;;;10357885;28;20952;-78
2021/03/18 04:17:22;;;;;;;15.43;4.10;;;;;;;;;;10357105;28;20220;-78
2021/03/18 04:22:27;;;;;;;11.97;4.00;;;;;;;;;;10357664;28;20216;-78
2021/03/18 04:27:29;;;;;;;13.80;3.83;;;;;;;;;;10358454;28;20212;-78
2021/03/18 04:32:31;;;;;;;14.23;3.90;;;;;;;;;;10359831;28;20787;-78
2021/03/18 04:37:35;;;;;;;13.43;3.90;;;;;;;;;;10354657;28;20251;-78
2021/03/18 04:42:38;;;;;;;14.43;4.20;;;;;;;;;;10361141;28;20221;-78
2021/03/18 04:47:41;;;;;;;12.43;4.10;;;;;;;;;;10362571;28;20753;-78
2021/03/18 04:52:44;;;;;;;11.87;4.00;;;;;;;;;;10355734;28;20658;-78
2021/03/18 04:57:47;;;;;;;11.63;3.73;;;;;;;;;;10360470;28;20591;-79
2021/03/18 05:02:50;;;;;;;11.60;3.60;;;;;;;;;;10358288;28;20251;-78
2021/03/18 05:07:53;;;;;;;12.67;3.80;;;;;;;;;;10357766;28;20224;-78
2021/03/18 05:12:56;;;;;;;14.00;3.97;;;;;;;;;;10357899;28;20236;-78
2021/03/18 05:17:58;;;;;;;11.57;4.00;;;;;;;;;;10360117;28;20631;-78
2021/03/18 05:23:01;;;;;;;15.60;4.67;;;;;;;;;;10355702;28;20685;-78
2021/03/18 05:28:03;;;;;;;8.83;4.03;;;;;;;;;;10368624;28;20225;-78
2021/03/18 05:33:05;;;;;;;10.23;3.80;;;;;;;;;;10363075;28;20756;-78
2021/03/18 05:38:12;;;;;;;12.77;4.63;;;;;;;;;;10362138;28;20216;-78
2021/03/18 05:43:14;;;;;;;16.60;4.70;;;;;;;;;;10366653;28;20751;-79
2021/03/18 05:48:18;;;;;;;13.97;4.60;;;;;;;;;;10374969;28;20219;-78
2021/03/18 05:53:22;;;;;;;13.93;5.20;;;;;;;;;;10362013;28;20248;-79
2021/03/18 05:58:25;;;;;;;12.40;4.90;;;;;;;;;;10361385;28;20227;-80
2021/03/18 06:03:27;;;;;;;13.63;4.57;;;;;;;;;;10366398;28;20236;-79
2021/03/18 06:08:35;;;;;;;13.03;4.50;;;;;;;;;;10362450;28;20222;-81
2021/03/18 06:13:37;;;;;;;13.10;4.87;;;;;;;;;;10368762;28;20236;-80
2021/03/18 06:18:38;;;;;;;15.60;4.90;;;;;;;;;;10369312;28;20221;-78
2021/03/18 06:23:42;;;;;;;17.63;4.83;;;;;;;;;;10363637;28;20231;-79
2021/03/18 06:28:44;;;;;;;18.10;4.60;;;;;;;;;;10364330;28;20212;-81
2021/03/18 06:33:47;;;;;;;17.97;5.40;;;;;;;;;;10363352;28;20243;-78
2021/03/18 06:38:58;;;;;;;14.33;5.30;;;;;;;;;;10360245;28;20212;-79
2021/03/18 06:44:00;;;;;;;13.00;4.57;;;;;;;;;;10361728;28;20221;-76
2021/03/18 06:49:10;;;;;;;16.67;4.10;;;;;;;;;;10359793;28;20685;-76
2021/03/18 06:54:20;;;;;;;10.90;4.37;;;;;;;;;;10361173;28;20244;-76
2021/03/18 06:59:23;;;;;;;19.27;4.30;;;;;;;;;;10367810;28;20306;-75
2021/03/18 07:04:32;;;;;;;16.07;4.27;;;;;;;;;;10357658;28;20235;-75
2021/03/18 07:09:35;;;;;;;14.23;3.80;;;;;;;;;;10356227;28;20691;-78
2021/03/18 07:14:38;;;;;;;17.17;4.20;;;;;;;;;;10370267;28;20593;-77
2021/03/18 07:19:40;;;;;;;15.07;4.47;;;;;;;;;;10365775;28;20222;-76
2021/03/18 07:24:43;;;;;;;14.43;4.43;;;;;;;;;;10367946;28;20220;-77
2021/03/18 07:29:46;;;;;;;20.60;4.67;;;;;;;;;;10366348;28;20243;-77
2021/03/18 07:34:48;;;;;;;15.87;4.27;;;;;;;;;;10364462;28;20576;-78
2021/03/18 07:39:51;;;;;;;21.87;5.27;;;;;;;;;;10364120;28;20220;-77
2021/03/18 07:44:54;;;;;;;24.43;5.03;;;;;;;;;;10367869;28;20311;-78
2021/03/18 07:49:57;;;;;;;21.47;4.97;;;;;;;;;;10363112;28;20244;-76
2021/03/18 07:55:01;;;;;;;22.77;5.67;;;;;;;;;;10356091;28;20303;-76
2021/03/18 08:00:08;;;;;;;21.43;5.33;;;;;;;;;;10367248;28;20512;-76
2021/03/18 08:05:11;;;;;;;23.00;5.80;;;;;;;;;;10359537;28;20807;-76
2021/03/18 08:10:14;;;;;;;23.03;5.10;;;;;;;;;;10366911;28;20410;-78
2021/03/18 08:15:34;;;;;;;18.13;5.47;;;;;;;;;;10356902;28;20350;-78
2021/03/18 08:20:58;;;;;;;31.50;5.90;;;;;;;;;;10359034;28;20304;-78
2021/03/18 08:26:02;;;;;;;32.77;5.80;;;;;;;;;;10363378;28;20271;-77
2021/03/18 08:31:04;;;;;;;19.30;4.80;;;;;;;;;;10366296;28;20330;-78
2021/03/18 08:36:23;;;;;;;29.23;5.30;;;;;;;;;;10357800;28;20298;-75
2021/03/18 08:41:33;;;;;;;23.83;5.00;;;;;;;;;;10361161;28;20220;-77
2021/03/18 08:46:39;;;;;;;26.80;5.90;;;;;;;;;;10365495;28;20235;-78
2021/03/18 08:51:42;;;;;;;27.30;6.13;;;;;;;;;;10357059;28;20247;-78
2021/03/18 08:56:44;;;;;;;26.47;5.47;;;;;;;;;;10366935;28;20213;-77
2021/03/18 09:01:46;;;;;;;24.90;4.97;;;;;;;;;;10361767;28;20248;-78
2021/03/18 09:06:49;;;;;;;23.33;4.80;;;;;;;;;;10354969;28;20263;-77
2021/03/18 09:11:54;;;;;;;21.27;5.10;;;;;;;;;;10365759;28;20239;-77
2021/03/18 09:17:02;;;;;;;18.30;4.43;;;;;;;;;;10359434;28;20224;-78
2021/03/18 09:22:09;;;;;;;28.77;5.27;;;;;;;;;;10355261;28;20229;-79
2021/03/18 09:27:12;;;;;;;17.93;4.53;;;;;;;;;;10361857;28;20220;-78
2021/03/18 09:32:14;;;;;;;19.17;5.17;;;;;;;;;;10359170;28;20266;-76
2021/03/18 09:37:16;;;;;;;24.57;5.47;;;;;;;;;;10361886;28;20213;-76
2021/03/18 09:42:20;;;;;;;22.23;5.43;;;;;;;;;;10369617;28;20227;-77
2021/03/18 09:47:21;;;;;;;18.40;5.03;;;;;;;;;;10368438;28;20235;-77
2021/03/18 09:52:27;;;;;;;19.40;4.97;;;;;;;;;;10358858;28;20247;-77
2021/03/18 09:57:32;;;;;;;21.87;5.17;;;;;;;;;;10361648;28;20216;-78
2021/03/18 10:02:42;;;;;;;21.27;4.10;;;;;;;;;;10355201;28;20244;-77
2021/03/18 10:07:44;;;;;;;16.83;4.17;;;;;;;;;;10353407;28;20282;-77
2021/03/18 10:12:48;;;;;;;17.30;4.20;;;;;;;;;;10372255;28;20237;-76
2021/03/18 10:17:52;;;;;;;19.33;4.53;;;;;;;;;;10375525;28;20247;-77
2021/03/18 10:23:00;;;;;;;23.43;4.53;;;;;;;;;;10369866;28;20693;-76
2021/03/18 10:28:05;;;;;;;18.20;4.10;;;;;;;;;;10366156;28;20571;-76
2021/03/18 10:33:09;;;;;;;22.83;4.20;;;;;;;;;;10367375;28;20796;-78
2021/03/18 10:38:11;;;;;;;22.77;4.57;;;;;;;;;;10362764;28;20220;-77
2021/03/18 10:43:18;;;;;;;14.13;4.53;;;;;;;;;;10374063;28;20212;-77
2021/03/18 10:48:21;;;;;;;17.53;4.40;;;;;;;;;;10357391;28;20212;-76
2021/03/18 10:53:24;;;;;;;17.73;4.40;;;;;;;;;;10368923;28;20330;-76
2021/03/18 10:58:44;;;;;;;21.80;4.57;;;;;;;;;;10367528;28;20212;-76
2021/03/18 11:03:48;;;;;;;24.50;4.50;;;;;;;;;;10358689;28;20240;-78
2021/03/18 11:08:51;;;;;;;20.80;4.47;;;;;;;;;;10363053;28;20228;-77
2021/03/18 11:14:05;;;;;;;14.43;3.73;;;;;;;;;;10361717;28;20732;-78
2021/03/18 11:19:08;;;;;;;13.23;3.73;;;;;;;;;;10372740;28;20212;-77
2021/03/18 11:24:10;;;;;;;15.23;4.40;;;;;;;;;;10360427;28;20294;-79
2021/03/18 11:29:15;;;;;;;17.87;4.17;;;;;;;;;;10368309;28;20239;-77
2021/03/18 11:34:17;;;;;;;15.80;4.13;;;;;;;;;;10360543;28;20245;-78
2021/03/18 11:39:20;;;;;;;15.60;3.60;;;;;;;;;;10367121;28;20239;-77
2021/03/18 11:44:23;;;;;;;12.23;3.40;;;;;;;;;;10366673;28;20359;-78
2021/03/18 11:49:25;;;;;;;14.53;3.53;;;;;;;;;;10362381;28;20634;-77
2021/03/18 11:54:27;;;;;;;15.30;3.57;;;;;;;;;;10365969;28;20757;-78
2021/03/18 11:59:30;;;;;;;13.43;3.70;;;;;;;;;;10362723;28;20216;-78
2021/03/18 12:04:32;;;;;;;16.30;3.40;;;;;;;;;;10359899;28;20294;-78
2021/03/18 12:09:35;;;;;;;20.07;3.50;;;;;;;;;;10359949;28;20212;-76
2021/03/18 12:14:38;;;;;;;16.40;3.37;;;;;;;;;;10359384;28;20247;-78
2021/03/18 12:19:40;;;;;;;17.40;3.40;;;;;;;;;;10365857;28;20227;-76
2021/03/18 12:24:42;;;;;;;14.40;3.13;;;;;;;;;;10363422;28;20231;-77
2021/03/18 12:29:44;;;;;;;15.57;3.60;;;;;;;;;;10354883;28;20481;-77
2021/03/18 12:34:46;;;;;;;12.23;3.20;;;;;;;;;;10361506;28;20244;-76
2021/03/18 12:39:48;;;;;;;11.23;3.00;;;;;;;;;;10360936;28;20238;-77
2021/03/18 12:44:51;;;;;;;15.40;3.60;;;;;;;;;;10363082;28;20227;-78
2021/03/18 12:49:54;;;;;;;13.17;2.53;;;;;;;;;;10356398;28;20213;-79
2021/03/18 12:54:56;;;;;;;14.47;2.83;;;;;;;;;;10355883;28;20243;-78
2021/03/18 12:59:59;;;;;;;15.37;3.37;;;;;;;;;;10358912;28;20225;-78
2021/03/18 13:05:01;;;;;;;20.57;3.30;;;;;;;;;;10365710;28;20251;-78
2021/03/18 13:10:03;;;;;;;16.30;3.30;;;;;;;;;;10368466;28;20239;-78
2021/03/18 13:15:07;;;;;;;16.97;3.70;;;;;;;;;;10365566;28;20407;-77
2021/03/18 13:20:10;;;;;;;17.03;3.37;;;;;;;;;;10363966;28;20294;-78
2021/03/18 13:25:13;;;;;;;16.10;3.40;;;;;;;;;;10362240;28;20212;-76
2021/03/18 13:30:18;;;;;;;12.40;2.97;;;;;;;;;;10364126;28;20220;-76
2021/03/18 13:35:20;;;;;;;15.33;3.43;;;;;;;;;;10363509;28;20209;-78
2021/03/18 13:40:22;;;;;;;14.90;3.30;;;;;;;;;;10359847;28;20567;-77
2021/03/18 13:45:25;;;;;;;16.37;3.00;;;;;;;;;;10364334;28;20231;-78
2021/03/18 13:50:27;;;;;;;15.83;3.13;;;;;;;;;;10372069;28;20224;-77
2021/03/18 13:55:29;;;;;;;15.47;3.27;;;;;;;;;;10361195;28;20220;-77
2021/03/18 14:00:32;;;;;;;16.97;3.40;;;;;;;;;;10368761;28;20596;-77
2021/03/18 14:05:34;;;;;;;14.63;3.60;;;;;;;;;;10367823;28;20697;-76
2021/03/18 14:10:37;;;;;;;18.70;3.27;;;;;;;;;;10367007;28;20233;-77
2021/03/18 14:15:40;;;;;;;9.10;3.20;;;;;;;;;;10371125;28;20216;-77
2021/03/18 14:20:43;;;;;;;15.67;3.27;;;;;;;;;;10368513;28;20213;-77
2021/03/18 14:25:47;;;;;;;12.67;2.93;;;;;;;;;;10363771;28;20225;-78
2021/03/18 14:30:50;;;;;;;11.83;3.00;;;;;;;;;;10371569;28;20573;-77
2021/03/18 14:35:52;;;;;;;14.63;3.20;;;;;;;;;;10363281;28;20252;-78
2021/03/18 14:40:54;;;;;;;11.40;2.63;;;;;;;;;;10366575;28;20827;-78
2021/03/18 14:45:57;;;;;;;6.47;2.07;;;;;;;;;;10366995;28;20224;-78
2021/03/18 14:50:59;;;;;;;7.83;2.23;;;;;;;;;;10367138;28;20259;-77
2021/03/18 14:56:01;;;;;;;7.47;2.07;;;;;;;;;;10363644;28;20221;-78
2021/03/18 15:01:24;;;;;;;6.00;2.00;;;;;;;;;;10366146;28;20607;-77
2021/03/18 15:06:26;;;;;;;6.03;1.80;;;;;;;;;;10372293;28;20208;-77
2021/03/18 15:11:28;;;;;;;8.27;2.30;;;;;;;;;;10362470;28;20700;-77
2021/03/18 15:16:31;;;;;;;12.83;2.10;;;;;;;;;;10362061;28;20690;-79
2021/03/18 15:21:33;;;;;;;7.10;2.50;;;;;;;;;;10362634;28;20217;-78
2021/03/18 15:26:35;;;;;;;8.40;2.37;;;;;;;;;;10366515;28;20257;-77
2021/03/18 15:31:38;;;;;;;11.40;2.83;;;;;;;;;;10370286;28;20243;-78
2021/03/18 15:36:40;;;;;;;11.00;3.00;;;;;;;;;;10359490;28;20216;-78
2021/03/18 15:41:42;;;;;;;12.47;2.80;;;;;;;;;;10360401;28;20220;-78
2021/03/18 15:46:45;;;;;;;6.90;2.13;;;;;;;;;;10365445;28;20247;-77
2021/03/18 15:51:47;;;;;;;8.40;3.03;;;;;;;;;;10363396;28;20527;-78
2021/03/18 15:56:49;;;;;;;10.03;2.30;;;;;;;;;;10367633;28;20767;-78
2021/03/18 16:01:52;;;;;;;9.97;3.30;;;;;;;;;;10367621;28;20227;-78
2021/03/18 16:07:14;;;;;;;8.20;2.27;;;;;;;;;;10363605;28;20209;-77
2021/03/18 16:12:16;;;;;;;7.40;2.73;;;;;;;;;;10360105;28;20720;-77
2021/03/18 16:17:19;;;;;;;6.07;2.00;;;;;;;;;;10363281;28;20220;-78
2021/03/18 16:22:22;;;;;;;6.80;1.93;;;;;;;;;;10359008;28;20213;-77
2021/03/18 16:27:24;;;;;;;6.37;1.73;;;;;;;;;;10371528;28;20247;-77
2021/03/18 16:32:26;;;;;;;5.53;2.07;;;;;;;;;;10371749;28;20274;-78
2021/03/18 16:37:30;;;;;;;8.57;2.47;;;;;;;;;;10361402;28;20311;-77
2021/03/18 16:42:31;;;;;;;9.90;2.40;;;;;;;;;;10362302;28;20598;-77
2021/03/18 16:47:34;;;;;;;7.00;2.00;;;;;;;;;;10358149;28;20312;-77
2021/03/18 16:52:37;;;;;;;6.70;2.20;;;;;;;;;;10359899;28;20240;-77
2021/03/18 16:57:41;;;;;;;7.23;2.33;;;;;;;;;;10362103;28;20325;-78
2021/03/18 17:02:44;;;;;;;8.73;2.90;;;;;;;;;;10361916;28;20236;-77
2021/03/18 17:07:47;;;;;;;6.33;1.73;;;;;;;;;;10354982;28;20335;-77
2021/03/18 17:12:50;;;;;;;4.93;1.70;;;;;;;;;;10365700;28;20294;-77
2021/03/18 17:17:54;;;;;;;4.33;1.70;;;;;;;;;;10362010;28;20367;-78
2021/03/18 17:22:56;;;;;;;5.63;1.67;;;;;;;;;;10365739;28;20695;-78
2021/03/18 17:27:58;;;;;;;6.90;2.00;;;;;;;;;;10368449;28;20226;-76
2021/03/18 17:33:02;;;;;;;11.10;5.07;;;;;;;;;;10372501;28;20232;-77
2021/03/18 17:38:04;;;;;;;10.53;4.00;;;;;;;;;;10371785;28;20220;-76
2021/03/18 17:43:06;;;;;;;5.37;2.60;;;;;;;;;;10365697;28;20676;-77
2021/03/18 17:48:14;;;;;;;3.43;2.20;;;;;;;;;;10370451;28;20705;-79
2021/03/18 17:53:18;;;;;;;7.20;2.17;;;;;;;;;;10366607;28;20244;-77
2021/03/18 17:58:19;;;;;;;5.17;1.70;;;;;;;;;;10380830;28;20222;-76
2021/03/18 18:03:23;;;;;;;4.50;1.87;;;;;;;;;;10363903;28;20251;-79
2021/03/18 18:08:25;;;;;;;8.23;2.20;;;;;;;;;;10355445;28;20303;-81
2021/03/18 18:13:29;;;;;;;4.77;2.00;;;;;;;;;;10357545;28;20720;-78
2021/03/18 18:18:40;;;;;;;7.50;2.23;;;;;;;;;;10349126;28;20220;-80
2021/03/18 18:23:41;;;;;;;8.87;2.60;;;;;;;;;;10354644;28;20225;-77
2021/03/18 23:43:50;;;;;;;6.83;1.97;;;;;;;;;;10396650;28;20585;-79
2021/03/18 23:48:52;;;;;;;3.23;2.00;;;;;;;;;;10403218;28;20302;-79
2021/03/18 23:53:54;;;;;;;3.90;2.10;;;;;;;;;;10405276;28;20662;-77
2021/03/18 23:58:57;;;;;;;3.30;2.13;;;;;;;;;;10402752;28;20217;-79
